Monday, June 18, 2018, 8:48 PM EDT
Back to Local

KHVN, Tweed-new Haven Airport

Location: East Haven, CT, United States Lat: 41.267
Local Time: 8:48 PM EDT ( 0:48 GMT) Lon: -72.883
Time Zone: US/Eastern Elev: 13 ft

Show me the last for .
Show Decoded

2018-06-18 20:29 METAR KHVN 190029Z 23009G16KT 10SM VCTS BKN040 23/18 A2981 RMK AO2 LTG DSNT W-N
                 T02330178 =
2018-06-18 19:53 METAR KHVN 182353Z 24005KT 10SM CLR 24/18 A2980 RMK AO2 LTG DSNT W AND NW SLP090
                 T02390178 10283 20239 56017 =
2018-06-18 18:53 METAR KHVN 182253Z 22006KT 10SM CLR 24/18 A2980 RMK AO2 SLP091 T02390178 =
2018-06-18 17:53 METAR KHVN 182153Z 25005KT 10SM CLR 24/18 A2981 RMK AO2 SLP094 T02440183 =
2018-06-18 16:53 METAR KHVN 182053Z VRB05KT 10SM CLR 26/19 A2985 RMK AO2 SLP107 T02560189 56022 =
2018-06-18 15:53 METAR KHVN 181953Z 22009KT 10SM CLR 26/19 A2986 RMK AO2 SLP111 T02560189 =
2018-06-18 14:53 METAR KHVN 181853Z 20011KT 10SM CLR 27/19 A2989 RMK AO2 SLP120 T02720194 =
2018-06-18 13:53 METAR KHVN 181753Z 20010G18KT 10SM CLR 27/21 A2991 RMK AO2 SLP129 T02720206
                 10278 20211 58021 =
2018-06-18 12:53 METAR KHVN 181653Z 21009KT 10SM CLR 27/21 A2995 RMK AO2 SLP141 T02670206 =
2018-06-18 11:53 METAR KHVN 181553Z 20009KT 10SM CLR 27/21 A2996 RMK AO2 SLP144 T02670206 =
2018-06-18 10:53 METAR KHVN 181453Z 21008KT 10SM CLR 26/20 A2998 RMK AO2 SLP151 T02560200 58016 =
2018-06-18 09:53 METAR KHVN 181353Z VRB05KT 10SM CLR 23/19 A3000 RMK AO2 SLP158 T02330194 =
2018-06-18 08:53 METAR KHVN 181253Z 23005KT 10SM CLR 23/19 A3001 RMK AO2 SLP162 T02280189 =
2018-06-18 07:53 METAR KHVN 181153Z 22005KT 10SM CLR 21/18 A3003 RMK AO2 SLP167 T02110183 10211
                 20161 58005 =
2018-06-18 06:53 METAR KHVN 181053Z 21005KT 10SM CLR 21/18 A3003 RMK AO2 SLP168 T02060178 =
2018-06-18 05:53 METAR KHVN 180953Z AUTO 24003KT 10SM CLR 19/17 A3004 RMK AO2 SLP172 T01890172 =
2018-06-18 04:53 METAR KHVN 180853Z AUTO 00000KT 10SM CLR 18/17 A3004 RMK AO2 SLP172 T01830167
                 58007 =
2018-06-18 03:53 METAR KHVN 180753Z AUTO 00000KT 10SM CLR 18/17 A3005 RMK AO2 SLP174 T01830167 =
2018-06-18 02:53 METAR KHVN 180653Z AUTO 00000KT 10SM CLR 18/16 A3006 RMK AO2 SLP179 T01830161 =
2018-06-18 01:53 METAR KHVN 180553Z AUTO 19003KT 10SM CLR 19/17 A3006 RMK AO2 SLP179 T01890167
                 10233 20183 58002 =
2018-06-18 00:53 METAR KHVN 180453Z AUTO 18004KT 10SM CLR 19/16 A3007 RMK AO2 SLP183 T01890161
                 402940128 =
2018-06-17 23:53 METAR KHVN 180353Z AUTO 18003KT 10SM CLR 19/16 A3007 RMK AO2 SLP182 T01890156 =
2018-06-17 22:53 METAR KHVN 180253Z AUTO 18004KT 10SM CLR 19/16 A3007 RMK AO2 SLP181 T01940156
                 50000 =
2018-06-17 21:53 METAR KHVN 180153Z 20003KT 10SM CLR 19/16 A3007 RMK AO2 SLP182 T01940156 =
2018-06-17 20:53 METAR KHVN 180053Z 21005KT 10SM CLR 22/15 A3007 RMK AO2 SLP181 T02220150 =

Support USWX by starting your Amazon purchase here.